createdAt,value
2023-02-04T00:00:20.276Z,5.61
2023-02-04T00:03:24.335Z,5.48
2023-02-04T00:06:28.639Z,5.43
2023-02-04T00:09:32.570Z,5.35
2023-02-04T00:12:37.129Z,5.25
2023-02-04T00:15:41.375Z,5.13
2023-02-04T00:18:45.445Z,5.22
2023-02-04T00:21:49.684Z,5.16
2023-02-04T00:24:53.835Z,5.13
2023-02-04T00:27:58.061Z,5.17
2023-02-04T00:31:02.360Z,5.10
2023-02-04T00:34:06.894Z,4.97
2023-02-04T00:37:11.094Z,5.00
2023-02-04T00:40:15.294Z,5.00
2023-02-04T00:43:19.320Z,5.08
2023-02-04T00:46:23.609Z,5.00
2023-02-04T00:49:27.939Z,5.05
2023-02-04T00:52:32.016Z,5.06
2023-02-04T00:55:36.101Z,4.98
2023-02-04T00:58:40.285Z,4.97
2023-02-04T01:01:44.486Z,4.91
2023-02-04T01:04:48.614Z,4.98
2023-02-04T01:07:52.681Z,4.94
2023-02-04T01:10:56.856Z,4.91
2023-02-04T01:14:01.147Z,4.83
2023-02-04T01:17:05.445Z,4.78
2023-02-04T01:20:10.739Z,4.80
2023-02-04T01:23:14.696Z,4.83
2023-02-04T01:26:19.661Z,4.73
2023-02-04T01:29:23.491Z,4.65
2023-02-04T01:32:28.120Z,4.63
2023-02-04T01:35:32.246Z,4.51
2023-02-04T01:38:36.196Z,4.41
2023-02-04T01:41:40.521Z,4.44
2023-02-04T01:44:44.756Z,4.46
2023-02-04T01:47:49.214Z,4.53
2023-02-04T01:51:00.954Z,4.52
2023-02-04T01:54:05.554Z,4.38
2023-02-04T01:57:14.930Z,4.32
2023-02-04T02:00:31.242Z,4.17
2023-02-04T02:03:35.506Z,4.22
2023-02-04T02:06:44.026Z,4.03
2023-02-04T02:09:47.894Z,4.08
2023-02-04T02:12:54.002Z,4.08
2023-02-04T02:15:58.174Z,4.12
2023-02-04T02:19:02.480Z,4.12
2023-02-04T02:22:29.817Z,4.11
2023-02-04T02:25:34.067Z,3.96
2023-02-04T02:28:38.143Z,3.90
2023-02-04T02:31:42.161Z,4.00
2023-02-04T02:34:46.913Z,4.04
2023-02-04T02:37:51.343Z,4.07
2023-02-04T02:40:56.107Z,4.07
2023-02-04T02:44:00.175Z,4.15
2023-02-04T02:47:04.409Z,4.12
2023-02-04T02:50:15.943Z,4.12
2023-02-04T02:53:20.761Z,4.13
2023-02-04T02:56:25.043Z,4.17
2023-02-04T02:59:29.537Z,4.21
2023-02-04T03:02:33.817Z,4.27
2023-02-04T03:05:42.114Z,4.28
2023-02-04T03:08:47.825Z,4.27
2023-02-04T03:11:52.248Z,4.20
2023-02-04T03:14:56.227Z,4.11
2023-02-04T03:18:00.946Z,4.17
2023-02-04T03:21:06.853Z,4.06
2023-02-04T03:24:11.689Z,4.09
2023-02-04T03:27:15.952Z,4.05
2023-02-04T03:30:23.223Z,3.90
2023-02-04T03:33:31.816Z,3.78
2023-02-04T03:36:36.650Z,3.75
2023-02-04T03:39:40.781Z,3.83
2023-02-04T03:42:45.050Z,3.88
2023-02-04T03:45:49.399Z,3.76
2023-02-04T03:48:53.622Z,3.77
2023-02-04T03:51:58.062Z,3.84
2023-02-04T03:55:02.136Z,3.85
2023-02-04T03:58:06.240Z,3.92
2023-02-04T04:01:10.547Z,3.95
2023-02-04T04:04:14.691Z,3.97
2023-02-04T04:07:18.823Z,4.05
2023-02-04T04:10:22.928Z,4.07
2023-02-04T04:13:27.282Z,4.02
2023-02-04T04:16:31.534Z,4.05
2023-02-04T04:19:35.959Z,4.05
2023-02-04T04:22:40.227Z,4.04
2023-02-04T04:25:44.257Z,4.02
2023-02-04T04:28:48.633Z,3.88
2023-02-04T04:31:53.276Z,3.80
2023-02-04T04:35:00.083Z,3.66
2023-02-04T04:38:03.954Z,3.56
2023-02-04T04:41:08.299Z,3.45
2023-02-04T04:44:12.485Z,3.41
2023-02-04T04:47:17.020Z,3.35
2023-02-04T04:50:21.412Z,3.27
2023-02-04T04:53:25.653Z,3.36
2023-02-04T04:56:29.816Z,3.29
2023-02-04T04:59:33.904Z,3.21
2023-02-04T05:02:38.073Z,3.21
2023-02-04T05:05:42.602Z,3.29
2023-02-04T05:08:46.595Z,3.40
2023-02-04T05:11:50.658Z,3.43
2023-02-04T05:14:54.836Z,3.51
2023-02-04T05:17:59.226Z,3.58
2023-02-04T05:21:03.535Z,3.53
2023-02-04T05:24:07.423Z,3.61
2023-02-04T05:27:11.661Z,3.65
2023-02-04T05:30:15.986Z,3.64
2023-02-04T05:33:20.346Z,3.63
2023-02-04T05:36:24.570Z,3.67
2023-02-04T05:39:28.684Z,3.70
2023-02-04T05:42:33.034Z,3.68
2023-02-04T05:45:36.941Z,3.69
2023-02-04T05:48:41.030Z,3.74
2023-02-04T05:51:45.186Z,3.64
2023-02-04T05:54:49.503Z,3.66
2023-02-04T05:57:53.828Z,3.69
2023-02-04T06:00:58.246Z,3.64
2023-02-04T06:04:02.423Z,3.58
2023-02-04T06:07:06.491Z,3.49
2023-02-04T06:10:11.751Z,3.45
2023-02-04T06:13:16.187Z,3.45
2023-02-04T06:16:20.368Z,3.27
2023-02-04T06:19:24.320Z,3.19
2023-02-04T06:22:28.404Z,3.11
2023-02-04T06:25:32.673Z,2.99
2023-02-04T06:28:37.108Z,2.97
2023-02-04T06:31:41.600Z,2.95
2023-02-04T06:34:45.890Z,2.98
2023-02-04T06:37:50.175Z,2.94
2023-02-04T06:40:54.201Z,2.89
2023-02-04T06:43:58.221Z,2.86
2023-02-04T06:47:02.956Z,2.84
2023-02-04T06:50:07.355Z,2.79
2023-02-04T06:53:11.252Z,2.79
2023-02-04T06:56:15.615Z,2.71
2023-02-04T06:59:19.721Z,2.63
2023-02-04T07:02:24.247Z,2.60
2023-02-04T07:05:28.335Z,2.55
2023-02-04T07:08:33.663Z,2.56
2023-02-04T07:11:37.338Z,2.56
2023-02-04T07:14:41.478Z,2.53
2023-02-04T07:17:45.787Z,2.52
2023-02-04T07:20:50.008Z,2.53
2023-02-04T07:23:53.958Z,2.47
2023-02-04T07:26:58.102Z,2.50
2023-02-04T07:30:05.161Z,2.54
2023-02-04T07:33:09.019Z,2.53
2023-02-04T07:36:15.091Z,2.55
2023-02-04T07:39:19.552Z,2.58
2023-02-04T07:42:23.835Z,2.57
2023-02-04T07:45:28.216Z,2.53
2023-02-04T07:48:32.677Z,2.58
2023-02-04T07:51:37.022Z,2.62
2023-02-04T07:54:41.334Z,2.69
2023-02-04T07:57:45.315Z,2.74
2023-02-04T08:00:49.627Z,2.77
2023-02-04T08:03:53.877Z,2.77
2023-02-04T08:06:58.306Z,2.90
2023-02-04T08:10:03.849Z,2.95
2023-02-04T08:13:07.988Z,2.97
2023-02-04T08:16:12.132Z,3.02
2023-02-04T08:19:19.146Z,3.12
2023-02-04T08:22:23.741Z,3.14
2023-02-04T08:25:29.705Z,3.18
2023-02-04T08:28:34.089Z,3.24
2023-02-04T08:31:38.390Z,3.23
2023-02-04T08:34:43.850Z,3.30
2023-02-04T08:37:47.833Z,4.01
2023-02-04T08:40:52.230Z,5.52
2023-02-04T08:43:57.121Z,5.48
2023-02-04T08:47:01.291Z,5.51
2023-02-04T08:50:05.746Z,5.37
2023-02-04T08:53:09.955Z,4.97
2023-02-04T08:56:20.463Z,4.95
2023-02-04T08:59:25.868Z,4.81
2023-02-04T09:02:29.692Z,4.62
2023-02-04T09:05:34.003Z,4.70
2023-02-04T09:08:38.187Z,4.76
2023-02-04T09:11:43.012Z,4.83
2023-02-04T09:14:47.339Z,4.87
2023-02-04T09:17:54.320Z,4.93
2023-02-04T09:20:59.325Z,4.96
2023-02-04T09:24:03.381Z,4.92
2023-02-04T09:27:07.767Z,4.87
2023-02-04T09:30:12.307Z,4.79
2023-02-04T09:33:17.062Z,4.93
2023-02-04T09:36:21.495Z,4.94
2023-02-04T09:39:25.801Z,4.89
2023-02-04T09:42:30.101Z,4.59
2023-02-04T09:45:36.068Z,4.48
2023-02-04T09:48:40.188Z,4.40
2023-02-04T09:51:46.727Z,4.40
2023-02-04T09:54:51.133Z,4.51
2023-02-04T09:57:55.610Z,4.53
2023-02-04T10:01:09.937Z,4.52
2023-02-04T10:04:15.181Z,4.44
2023-02-04T10:07:24.212Z,4.53
2023-02-04T10:10:28.485Z,4.64
2023-02-04T10:13:36.732Z,4.72
2023-02-04T10:16:43.450Z,4.71
2023-02-04T10:19:47.872Z,4.56
2023-02-04T10:22:57.369Z,4.46
2023-02-04T10:26:03.520Z,4.59
2023-02-04T10:29:14.974Z,4.69
2023-02-04T10:32:31.707Z,4.78
2023-02-04T10:35:45.573Z,4.95
2023-02-04T10:39:00.665Z,4.92
2023-02-04T10:42:05.406Z,4.66
2023-02-04T10:45:39.702Z,4.62
2023-02-04T10:48:43.819Z,4.50
2023-02-04T10:51:49.175Z,4.45
2023-02-04T10:54:53.265Z,4.62
2023-02-04T10:58:01.959Z,4.83
2023-02-04T11:01:11.518Z,5.21
2023-02-04T11:04:15.472Z,5.41
2023-02-04T11:07:21.505Z,5.58
2023-02-04T11:10:31.585Z,5.56
2023-02-04T11:13:58.356Z,5.38
2023-02-04T11:17:02.759Z,5.34
2023-02-04T11:20:17.422Z,5.51
2023-02-04T11:23:32.375Z,5.68
2023-02-04T11:26:37.602Z,5.59
2023-02-04T11:29:42.992Z,5.56
2023-02-04T11:33:01.253Z,5.43
2023-02-04T11:36:13.037Z,5.56
2023-02-04T11:39:18.156Z,5.64
2023-02-04T11:42:26.727Z,5.92
2023-02-04T11:45:33.817Z,6.10
2023-02-04T11:48:38.905Z,6.35
2023-02-04T11:51:46.102Z,6.56
2023-02-04T11:55:01.112Z,6.35
2023-02-04T11:58:05.443Z,6.11
2023-02-04T12:01:21.396Z,6.03
2023-02-04T12:04:25.764Z,6.06
2023-02-04T12:07:30.543Z,6.02
2023-02-04T12:10:34.582Z,5.91
2023-02-04T12:13:59.796Z,5.78
2023-02-04T12:17:17.178Z,6.05
2023-02-04T12:20:21.401Z,6.21
2023-02-04T12:23:27.298Z,6.24
2023-02-04T12:26:31.610Z,6.07
2023-02-04T12:29:35.887Z,5.82
2023-02-04T12:32:40.273Z,5.78
2023-02-04T12:35:44.871Z,5.91
2023-02-04T12:38:49.067Z,5.70
2023-02-04T12:41:53.210Z,5.72
2023-02-04T12:44:57.381Z,5.96
2023-02-04T12:48:01.676Z,5.85
2023-02-04T12:51:06.047Z,5.64
2023-02-04T12:54:10.377Z,5.52
2023-02-04T12:57:19.563Z,5.53
2023-02-04T13:00:24.315Z,5.72
2023-02-04T13:03:28.222Z,6.07
2023-02-04T13:06:32.379Z,6.12
2023-02-04T13:09:37.196Z,6.01
2023-02-04T13:12:41.082Z,5.92
2023-02-04T13:15:45.771Z,5.71
2023-02-04T13:18:49.967Z,5.57
2023-02-04T13:21:54.186Z,5.42
2023-02-04T13:24:58.407Z,5.19
2023-02-04T13:28:02.695Z,5.12
2023-02-04T13:31:07.051Z,5.09
2023-02-04T13:34:11.355Z,5.12
2023-02-04T13:37:15.894Z,5.34
2023-02-04T13:40:20.218Z,5.48
2023-02-04T13:43:24.442Z,5.74
2023-02-04T13:46:29.207Z,5.91
2023-02-04T13:49:33.455Z,5.97
2023-02-04T13:52:37.732Z,6.03
2023-02-04T13:55:42.079Z,6.05
2023-02-04T13:58:46.431Z,5.93
2023-02-04T14:01:50.731Z,6.00
2023-02-04T14:04:55.082Z,5.94
2023-02-04T14:07:59.999Z,5.79
2023-02-04T14:11:05.244Z,5.62
2023-02-04T14:14:09.862Z,5.46
2023-02-04T14:17:14.341Z,5.29
2023-02-04T14:20:18.610Z,5.17
2023-02-04T14:23:23.743Z,5.19
2023-02-04T14:26:27.988Z,5.19
2023-02-04T14:29:32.567Z,5.17
2023-02-04T14:32:36.870Z,5.08
2023-02-04T14:35:41.203Z,5.08
2023-02-04T14:38:45.462Z,5.08
2023-02-04T14:41:49.748Z,4.96
2023-02-04T14:44:54.367Z,4.94
2023-02-04T14:48:00.516Z,4.92
2023-02-04T14:51:05.703Z,4.84
2023-02-04T14:54:09.851Z,4.82
2023-02-04T14:57:14.037Z,4.80
2023-02-04T15:00:19.515Z,4.72
2023-02-04T15:03:23.953Z,4.61
2023-02-04T15:06:28.073Z,4.64
2023-02-04T15:09:32.300Z,4.54
2023-02-04T15:12:36.570Z,4.56
2023-02-04T15:15:40.737Z,4.51
2023-02-04T15:18:44.944Z,4.46
2023-02-04T15:21:49.692Z,4.39
2023-02-04T15:24:53.738Z,4.41
2023-02-04T15:27:58.047Z,4.34
2023-02-04T15:31:02.558Z,4.31
2023-02-04T15:34:07.069Z,4.25
2023-02-04T15:37:11.302Z,4.17
2023-02-04T15:40:15.670Z,4.13
2023-02-04T15:43:19.976Z,4.08
2023-02-04T15:46:24.189Z,4.07
2023-02-04T15:49:28.637Z,4.01
2023-02-04T15:52:33.013Z,4.02
2023-02-04T15:55:36.924Z,3.93
2023-02-04T15:58:41.092Z,3.89
2023-02-04T16:01:45.424Z,3.86
2023-02-04T16:04:50.310Z,3.78
2023-02-04T16:07:54.594Z,3.71
2023-02-04T16:10:58.575Z,3.68
2023-02-04T16:14:02.849Z,3.65
2023-02-04T16:17:08.271Z,3.58
2023-02-04T16:20:12.615Z,3.53
2023-02-04T16:23:17.071Z,3.49
2023-02-04T16:26:20.978Z,3.51
2023-02-04T16:29:25.511Z,3.50
2023-02-04T16:32:29.761Z,3.39
2023-02-04T16:36:01.168Z,3.39
2023-02-04T16:39:05.554Z,3.35
2023-02-04T16:42:09.956Z,3.29
2023-02-04T16:45:15.113Z,3.34
2023-02-04T16:48:19.485Z,3.29
2023-02-04T16:51:24.878Z,3.25
2023-02-04T16:54:29.000Z,3.16
2023-02-04T16:57:33.310Z,3.19
2023-02-04T17:00:38.754Z,3.13
2023-02-04T17:03:43.594Z,3.14
2023-02-04T17:06:47.633Z,3.14
2023-02-04T17:09:51.849Z,3.11
2023-02-04T17:12:55.800Z,3.09
2023-02-04T17:16:02.916Z,3.05
2023-02-04T17:19:07.025Z,3.01
2023-02-04T17:22:11.441Z,2.96
2023-02-04T17:25:15.798Z,2.91
2023-02-04T17:28:20.139Z,2.88
2023-02-04T17:31:24.402Z,2.84
2023-02-04T17:34:29.734Z,2.84
2023-02-04T17:37:34.246Z,2.84
2023-02-04T17:40:38.470Z,2.83
2023-02-04T17:43:42.685Z,2.81
2023-02-04T17:46:46.953Z,2.81
2023-02-04T17:49:51.236Z,2.72
2023-02-04T17:52:55.773Z,2.68
2023-02-04T17:56:00.151Z,2.64
2023-02-04T17:59:09.725Z,2.68
2023-02-04T18:02:30.750Z,2.67
2023-02-04T18:05:35.788Z,2.68
2023-02-04T18:08:40.727Z,2.55
2023-02-04T18:11:45.384Z,2.52
2023-02-04T18:14:49.702Z,2.51
2023-02-04T18:18:00.604Z,2.51
2023-02-04T18:21:19.746Z,2.54
2023-02-04T18:24:30.101Z,2.46
2023-02-04T18:27:34.631Z,2.47
2023-02-04T18:30:39.099Z,2.46
2023-02-04T18:33:45.043Z,2.50
2023-02-04T18:36:53.264Z,2.47
2023-02-04T18:39:57.688Z,2.51
2023-02-04T18:43:29.514Z,2.53
2023-02-04T18:46:37.106Z,2.55
2023-02-04T18:49:42.414Z,2.57
2023-02-04T18:52:46.526Z,2.68
2023-02-04T18:55:53.205Z,2.66
2023-02-04T18:58:57.463Z,2.69
2023-02-04T19:02:01.481Z,2.70
2023-02-04T19:05:27.259Z,2.76
2023-02-04T19:08:40.268Z,2.73
2023-02-04T19:11:47.727Z,2.76
2023-02-04T19:14:52.362Z,2.86
2023-02-04T19:18:02.140Z,2.85
2023-02-04T19:21:30.626Z,2.83
2023-02-04T19:24:34.646Z,2.78
2023-02-04T19:27:43.212Z,2.77
2023-02-04T19:30:50.875Z,2.76
2023-02-04T19:33:55.407Z,2.75
2023-02-04T19:36:59.607Z,2.70
2023-02-04T19:40:20.507Z,2.64
2023-02-04T19:43:37.634Z,2.70
2023-02-04T19:46:42.650Z,2.66
2023-02-04T19:49:46.770Z,2.63
2023-02-04T19:52:59.643Z,2.65
2023-02-04T19:56:29.541Z,2.75
2023-02-04T19:59:36.386Z,2.73
2023-02-04T20:02:40.869Z,2.70
2023-02-04T20:05:45.191Z,2.67
2023-02-04T20:08:54.366Z,2.72
2023-02-04T20:11:59.855Z,2.69
2023-02-04T20:15:30.264Z,2.72
2023-02-04T20:18:34.518Z,2.67
2023-02-04T20:21:39.073Z,2.61
2023-02-04T20:24:46.112Z,2.60
2023-02-04T20:27:55.435Z,2.61
2023-02-04T20:31:00.606Z,2.62
2023-02-04T20:34:17.438Z,2.66
2023-02-04T20:37:26.991Z,2.65
2023-02-04T20:40:36.016Z,2.62
2023-02-04T20:43:42.089Z,2.67
2023-02-04T20:46:46.334Z,2.67
2023-02-04T20:49:56.188Z,2.72
2023-02-04T20:53:13.834Z,2.68
2023-02-04T20:56:30.793Z,2.69
2023-02-04T20:59:36.006Z,2.57
2023-02-04T21:02:41.326Z,2.58
2023-02-04T21:05:45.688Z,2.58
2023-02-04T21:08:51.765Z,2.54
2023-02-04T21:11:57.395Z,2.51
2023-02-04T21:15:01.157Z,2.50
2023-02-04T21:18:05.749Z,2.49
2023-02-04T21:21:10.221Z,2.50
2023-02-04T21:24:14.498Z,2.50
2023-02-04T21:27:21.994Z,2.46
2023-02-04T21:30:30.352Z,2.58
2023-02-04T21:33:34.304Z,2.57
2023-02-04T21:36:38.897Z,2.51
2023-02-04T21:39:43.147Z,2.52
2023-02-04T21:42:51.939Z,2.50
2023-02-04T21:45:55.987Z,2.47
2023-02-04T21:49:00.024Z,2.50
2023-02-04T21:52:04.494Z,2.46
2023-02-04T21:55:10.088Z,2.37
2023-02-04T21:58:14.428Z,2.32
2023-02-04T22:01:18.712Z,2.18
2023-02-04T22:04:22.934Z,2.04
2023-02-04T22:07:27.226Z,1.98
2023-02-04T22:10:31.616Z,1.99
2023-02-04T22:13:36.012Z,1.89
2023-02-04T22:16:41.106Z,1.81
2023-02-04T22:19:45.370Z,1.78
2023-02-04T22:22:50.117Z,1.80
2023-02-04T22:25:54.006Z,1.87
2023-02-04T22:28:58.323Z,1.85
2023-02-04T22:32:02.416Z,1.84
2023-02-04T22:35:08.081Z,1.95
2023-02-04T22:38:12.289Z,1.95
2023-02-04T22:41:16.602Z,1.90
2023-02-04T22:44:21.000Z,1.82
2023-02-04T22:47:25.510Z,1.78
2023-02-04T22:50:29.405Z,1.76
2023-02-04T22:53:33.474Z,1.54
2023-02-04T22:56:37.555Z,1.42
2023-02-04T22:59:42.097Z,1.29
2023-02-04T23:02:46.346Z,1.29
2023-02-04T23:05:50.620Z,1.30
2023-02-04T23:08:55.008Z,1.20
2023-02-04T23:12:12.475Z,1.18
2023-02-04T23:15:16.506Z,1.18
2023-02-04T23:18:20.704Z,1.18
2023-02-04T23:21:25.685Z,1.09
2023-02-04T23:24:30.440Z,1.12
2023-02-04T23:27:34.487Z,1.11
2023-02-04T23:30:38.882Z,1.20
2023-02-04T23:33:43.184Z,0.95
2023-02-04T23:36:49.390Z,0.95
2023-02-04T23:39:53.333Z,0.81
2023-02-04T23:42:57.789Z,0.63
2023-02-04T23:46:01.826Z,0.60
2023-02-04T23:49:06.150Z,0.65
2023-02-04T23:52:10.086Z,0.54
2023-02-04T23:55:14.555Z,0.47
2023-02-04T23:58:18.772Z,0.51
